createdAt,value
2022-10-11T00:00:06.497Z,7.65
2022-10-11T00:02:53.228Z,5.93
2022-10-11T00:05:20.196Z,7.28
2022-10-11T00:07:46.927Z,6.68
2022-10-11T00:10:13.654Z,6.55
2022-10-11T00:12:40.715Z,7.35
2022-10-11T00:15:09.112Z,7.38
2022-10-11T00:17:35.881Z,7.22
2022-10-11T00:20:03.216Z,6.95
2022-10-11T00:22:30.002Z,5.90
2022-10-11T00:24:58.698Z,7.05
2022-10-11T00:27:25.919Z,6.45
2022-10-11T00:29:52.774Z,6.43
2022-10-11T00:32:20.158Z,6.05
2022-10-11T00:34:47.322Z,6.80
2022-10-11T00:37:14.034Z,7.55
2022-10-11T00:39:40.771Z,7.00
2022-10-11T00:42:13.386Z,6.30
2022-10-11T00:44:43.274Z,6.55
2022-10-11T00:47:15.394Z,6.13
2022-10-11T00:49:57.696Z,6.68
2022-10-11T00:52:32.912Z,6.85
2022-10-11T00:55:10.516Z,6.78
2022-10-11T00:57:41.461Z,6.30
2022-10-11T01:00:11.634Z,6.13
2022-10-11T01:02:40.214Z,6.47
2022-10-11T01:05:28.249Z,5.70
2022-10-11T01:07:57.697Z,6.07
2022-10-11T01:10:24.633Z,6.15
2022-10-11T01:13:36.572Z,6.45
2022-10-11T01:16:29.833Z,6.60
2022-10-11T01:19:37.940Z,6.57
2022-10-11T01:22:34.290Z,6.03
2022-10-11T01:25:32.712Z,5.78
2022-10-11T01:28:08.865Z,6.03
2022-10-11T01:30:37.209Z,6.88
2022-10-11T01:33:48.374Z,6.20
2022-10-11T01:36:27.635Z,6.40
2022-10-11T01:39:03.460Z,6.72
2022-10-11T01:41:53.052Z,6.38
2022-10-11T01:44:20.605Z,6.32
2022-10-11T01:46:47.311Z,6.25
2022-10-11T01:49:14.043Z,7.47
2022-10-11T01:51:47.518Z,6.32
2022-10-11T01:54:27.702Z,7.03
2022-10-11T01:57:12.945Z,6.15
2022-10-11T01:59:57.682Z,6.72
2022-10-11T02:02:27.552Z,6.28
2022-10-11T02:05:15.184Z,7.22
2022-10-11T02:07:50.103Z,6.50
2022-10-11T02:10:56.019Z,6.88
2022-10-11T02:13:33.443Z,7.25
2022-10-11T02:16:06.689Z,6.13
2022-10-11T02:21:06.889Z,6.53
2022-10-11T02:23:39.086Z,6.53
2022-10-11T02:26:07.358Z,6.35
2022-10-11T02:28:37.909Z,5.88
2022-10-11T02:31:07.065Z,6.20
2022-10-11T02:33:40.784Z,6.68
2022-10-11T02:36:14.291Z,6.30
2022-10-11T02:38:49.524Z,5.65
2022-10-11T02:41:27.767Z,6.07
2022-10-11T02:44:11.819Z,5.90
2022-10-11T02:46:40.050Z,5.70
2022-10-11T02:49:08.493Z,5.93
2022-10-11T02:51:36.044Z,5.72
2022-10-11T02:54:06.060Z,5.93
2022-10-11T02:56:32.985Z,5.70
2022-10-11T02:58:59.739Z,5.22
2022-10-11T03:01:26.478Z,6.30
2022-10-11T03:03:53.539Z,6.18
2022-10-11T03:06:20.266Z,5.88
2022-10-11T03:08:47.031Z,6.15
2022-10-11T03:11:13.943Z,7.70
2022-10-11T03:13:40.803Z,9.88
2022-10-11T03:16:07.710Z,10.80
2022-10-11T03:18:34.737Z,11.25
2022-10-11T03:21:01.484Z,10.27
2022-10-11T03:23:28.320Z,10.00
2022-10-11T03:25:55.285Z,10.18
2022-10-11T03:28:22.182Z,10.65
2022-10-11T03:30:50.256Z,10.73
2022-10-11T03:33:17.968Z,9.70
2022-10-11T03:35:46.598Z,10.32
2022-10-11T03:38:15.605Z,10.38
2022-10-11T03:40:43.824Z,9.02
2022-10-11T03:43:10.789Z,10.10
2022-10-11T03:45:37.884Z,9.70
2022-10-11T03:48:05.495Z,7.32
2022-10-11T03:50:32.335Z,6.65
2022-10-11T03:52:59.229Z,6.60
2022-10-11T03:55:26.549Z,6.72
2022-10-11T03:57:53.493Z,6.65
2022-10-11T04:00:20.650Z,6.03
2022-10-11T04:02:47.609Z,5.68
2022-10-11T04:05:14.705Z,5.47
2022-10-11T04:07:41.799Z,5.82
2022-10-11T04:10:08.921Z,4.95
2022-10-11T04:12:38.334Z,5.07
2022-10-11T04:15:06.542Z,5.00
2022-10-11T04:17:33.560Z,5.53
2022-10-11T04:20:00.357Z,5.35
2022-10-11T04:22:27.158Z,4.53
2022-10-11T04:24:54.194Z,4.97
2022-10-11T04:27:21.031Z,5.30
2022-10-11T04:29:47.772Z,5.18
2022-10-11T04:32:14.957Z,5.40
2022-10-11T04:34:42.178Z,4.45
2022-10-11T04:37:08.921Z,4.72
2022-10-11T04:39:35.988Z,4.82
2022-10-11T04:42:02.711Z,5.50
2022-10-11T04:44:29.553Z,5.05
2022-10-11T04:46:56.628Z,5.53
2022-10-11T04:49:23.550Z,5.13
2022-10-11T04:51:50.623Z,5.10
2022-10-11T04:54:17.804Z,5.05
2022-10-11T04:56:44.867Z,5.43
2022-10-11T04:59:11.829Z,4.72
2022-10-11T05:01:39.127Z,4.97
2022-10-11T05:04:06.053Z,5.03
2022-10-11T05:06:32.919Z,4.53
2022-10-11T05:09:00.681Z,4.70
2022-10-11T05:11:27.445Z,5.03
2022-10-11T05:13:56.499Z,5.00
2022-10-11T05:16:24.683Z,4.32
2022-10-11T05:18:51.595Z,5.38
2022-10-11T05:21:20.969Z,4.70
2022-10-11T05:23:49.877Z,4.90
2022-10-11T05:26:17.834Z,4.78
2022-10-11T05:28:44.703Z,5.05
2022-10-11T05:31:11.822Z,7.53
2022-10-11T05:33:39.372Z,8.57
2022-10-11T05:36:07.904Z,10.07
2022-10-11T05:38:35.387Z,10.48
2022-10-11T05:41:03.029Z,9.23
2022-10-11T05:43:31.163Z,7.35
2022-10-11T05:45:58.413Z,6.95
2022-10-11T05:48:26.843Z,7.30
2022-10-11T05:51:00.445Z,7.10
2022-10-11T05:53:27.783Z,6.78
2022-10-11T05:55:55.045Z,6.68
2022-10-11T05:58:22.003Z,6.63
2022-10-11T06:00:49.042Z,6.30
2022-10-11T06:03:16.014Z,5.00
2022-10-11T06:05:42.780Z,6.13
2022-10-11T06:08:11.120Z,6.75
2022-10-11T06:10:38.613Z,5.78
2022-10-11T06:13:06.556Z,6.45
2022-10-11T06:15:34.426Z,6.25
2022-10-11T06:18:01.196Z,5.90
2022-10-11T06:20:28.115Z,5.68
2022-10-11T06:22:55.136Z,5.63
2022-10-11T06:25:21.912Z,6.07
2022-10-11T06:27:48.635Z,5.72
2022-10-11T06:30:15.599Z,4.88
2022-10-11T06:32:42.340Z,5.88
2022-10-11T06:35:09.254Z,5.18
2022-10-11T06:37:36.226Z,5.95
2022-10-11T06:40:03.195Z,4.82
2022-10-11T06:42:29.960Z,5.40
2022-10-11T06:44:57.170Z,4.72
2022-10-11T06:47:23.893Z,5.18
2022-10-11T06:49:50.640Z,4.43
2022-10-11T06:52:17.599Z,5.35
2022-10-11T06:54:45.409Z,4.60
2022-10-11T06:57:12.663Z,4.97
2022-10-11T06:59:39.723Z,5.05
2022-10-11T07:02:06.843Z,5.28
2022-10-11T07:04:34.066Z,4.88
2022-10-11T07:07:01.118Z,4.35
2022-10-11T07:09:27.942Z,4.55
2022-10-11T07:11:54.731Z,4.30
2022-10-11T07:14:21.673Z,5.68
2022-10-11T07:16:48.486Z,6.00
2022-10-11T07:19:15.431Z,5.35
2022-10-11T07:21:42.498Z,5.95
2022-10-11T07:24:09.403Z,4.28
2022-10-11T07:26:38.934Z,4.85
2022-10-11T07:29:11.345Z,5.28
2022-10-11T07:31:40.463Z,4.70
2022-10-11T07:34:07.627Z,4.78
2022-10-11T07:36:34.928Z,4.82
2022-10-11T07:39:05.123Z,4.35
2022-10-11T07:41:32.103Z,4.70
2022-10-11T07:43:58.988Z,5.15
2022-10-11T07:46:25.911Z,5.18
2022-10-11T07:48:52.920Z,5.22
2022-10-11T07:51:21.952Z,4.40
2022-10-11T07:53:51.815Z,5.05
2022-10-11T07:56:21.031Z,5.07
2022-10-11T07:58:57.938Z,4.90
2022-10-11T08:01:26.150Z,5.20
2022-10-11T08:03:53.711Z,5.03
2022-10-11T08:06:23.712Z,5.32
2022-10-11T08:08:50.642Z,5.10
2022-10-11T08:11:23.495Z,5.95
2022-10-11T08:13:50.337Z,5.80
2022-10-11T08:16:17.757Z,5.85
2022-10-11T08:18:44.776Z,5.93
2022-10-11T08:21:17.101Z,5.55
2022-10-11T08:23:44.581Z,6.05
2022-10-11T08:26:11.503Z,4.68
2022-10-11T08:28:38.675Z,6.63
2022-10-11T08:31:06.614Z,6.75
2022-10-11T08:33:33.422Z,5.93
2022-10-11T08:36:05.038Z,6.53
2022-10-11T08:38:33.052Z,6.22
2022-10-11T08:41:01.051Z,5.93
2022-10-11T08:44:06.871Z,5.38
2022-10-11T08:46:38.773Z,6.28
2022-10-11T08:49:07.522Z,6.00
2022-10-11T08:51:42.121Z,6.40
2022-10-11T08:54:27.204Z,7.18
2022-10-11T08:56:53.991Z,7.80
2022-10-11T08:59:41.498Z,5.88
2022-10-11T09:03:02.888Z,6.53
2022-10-11T09:05:25.529Z,6.15
2022-10-11T09:08:13.584Z,7.93
2022-10-11T09:11:22.513Z,7.18
2022-10-11T09:14:07.427Z,6.07
2022-10-11T09:16:44.821Z,6.93
2022-10-11T09:19:40.543Z,7.20
2022-10-11T09:22:30.786Z,7.15
2022-10-11T09:25:22.443Z,7.00
2022-10-11T09:28:05.163Z,8.80
2022-10-11T09:30:33.173Z,6.93
2022-10-11T09:33:17.288Z,7.22
2022-10-11T09:35:48.613Z,7.07
2022-10-11T09:38:37.108Z,7.15
2022-10-11T09:41:35.673Z,6.07
2022-10-11T09:44:02.636Z,6.90
2022-10-11T09:46:29.678Z,6.85
2022-10-11T09:48:57.568Z,7.13
2022-10-11T09:51:32.668Z,6.50
2022-10-11T09:54:02.371Z,7.07
2022-10-11T09:56:31.811Z,7.60
2022-10-11T09:59:26.289Z,7.10
2022-10-11T10:02:22.409Z,7.20
2022-10-11T10:05:10.906Z,7.75
2022-10-11T10:08:04.711Z,8.27
2022-10-11T10:10:40.661Z,7.95
2022-10-11T10:13:41.060Z,8.02
2022-10-11T10:16:18.499Z,7.78
2022-10-11T10:19:00.468Z,7.95
2022-10-11T10:21:32.625Z,9.85
2022-10-11T10:24:04.155Z,7.82
2022-10-11T10:26:32.512Z,7.35
2022-10-11T10:29:01.495Z,7.97
2022-10-11T10:32:01.882Z,8.13
2022-10-11T10:34:35.135Z,8.10
2022-10-11T10:37:42.400Z,7.65
2022-10-11T10:40:22.926Z,7.07
2022-10-11T10:42:51.038Z,7.10
2022-10-11T10:45:21.768Z,8.30
2022-10-11T10:47:54.769Z,7.70
2022-10-11T10:50:55.839Z,8.63
2022-10-11T10:53:42.098Z,8.90
2022-10-11T10:56:34.628Z,8.55
2022-10-11T10:59:25.183Z,8.32
2022-10-11T11:02:15.963Z,8.00
2022-10-11T11:05:13.381Z,7.82
2022-10-11T11:07:50.107Z,8.40
2022-10-11T11:10:25.511Z,8.98
2022-10-11T11:13:08.078Z,8.18
2022-10-11T11:16:16.014Z,9.38
2022-10-11T11:19:07.074Z,8.45
2022-10-11T11:22:12.213Z,8.55
2022-10-11T11:25:16.654Z,8.02
2022-10-11T11:27:59.414Z,9.20
2022-10-11T11:30:47.425Z,8.82
2022-10-11T11:33:36.138Z,8.57
2022-10-11T11:36:10.939Z,8.55
2022-10-11T11:38:46.552Z,9.55
2022-10-11T11:41:31.044Z,9.30
2022-10-11T11:44:06.842Z,10.35
2022-10-11T11:46:57.313Z,9.18
2022-10-11T11:49:31.632Z,8.10
2022-10-11T11:51:59.417Z,8.63
2022-10-11T11:54:43.196Z,8.55
2022-10-11T11:57:39.656Z,9.60
2022-10-11T12:00:15.546Z,8.25
2022-10-11T12:03:05.570Z,9.68
2022-10-11T12:05:36.151Z,8.48
2022-10-11T12:08:25.774Z,8.10
2022-10-11T12:11:01.274Z,7.13
2022-10-11T12:13:37.264Z,7.30
2022-10-11T12:16:03.971Z,8.05
2022-10-11T12:18:34.125Z,8.25
2022-10-11T12:21:19.079Z,7.80
2022-10-11T12:23:48.954Z,8.45
2022-10-11T12:26:27.790Z,8.98
2022-10-11T12:29:06.495Z,8.88
2022-10-11T12:31:38.044Z,8.55
2022-10-11T12:34:09.264Z,8.57
2022-10-11T12:36:45.338Z,8.23
2022-10-11T12:39:18.445Z,9.25
2022-10-11T12:41:48.482Z,8.40
2022-10-11T12:44:19.314Z,8.65
2022-10-11T12:46:54.968Z,8.55
2022-10-11T12:49:33.644Z,8.88
2022-10-11T12:52:03.125Z,8.27
2022-10-11T12:54:48.584Z,9.15
2022-10-11T12:57:42.546Z,9.18
2022-10-11T13:00:30.965Z,8.77
2022-10-11T13:03:01.398Z,7.88
2022-10-11T13:05:44.929Z,9.13
2022-10-11T13:08:26.278Z,9.73
2022-10-11T13:10:55.827Z,9.43
2022-10-11T13:13:44.751Z,11.32
2022-10-11T13:16:20.545Z,8.63
2022-10-11T13:18:50.819Z,9.15
2022-10-11T13:21:25.868Z,8.80
2022-10-11T13:23:59.186Z,9.38
2022-10-11T13:26:29.039Z,8.32
2022-10-11T13:28:56.568Z,8.45
2022-10-11T13:31:25.126Z,9.18
2022-10-11T13:33:59.086Z,8.68
2022-10-11T13:36:27.310Z,9.18
2022-10-11T13:38:57.812Z,8.95
2022-10-11T13:41:27.330Z,8.38
2022-10-11T13:43:56.982Z,9.00
2022-10-11T13:46:26.292Z,9.68
2022-10-11T13:49:37.294Z,8.38
2022-10-11T13:52:19.369Z,8.02
2022-10-11T13:55:10.418Z,8.45
2022-10-11T13:57:46.256Z,9.63
2022-10-11T14:00:16.472Z,8.10
2022-10-11T14:03:06.816Z,7.32
2022-10-11T14:05:38.845Z,9.85
2022-10-11T14:08:19.185Z,8.98
2022-10-11T14:10:47.538Z,9.02
2022-10-11T14:13:24.924Z,8.38
2022-10-11T14:16:03.910Z,8.75
2022-10-11T14:18:37.077Z,8.48
2022-10-11T14:21:27.491Z,9.95
2022-10-11T14:24:00.288Z,9.30
2022-10-11T14:26:31.727Z,8.80
2022-10-11T14:29:01.915Z,10.48
2022-10-11T14:31:29.402Z,7.80
2022-10-11T14:33:56.904Z,8.90
2022-10-11T14:36:23.915Z,8.82
2022-10-11T14:38:51.210Z,8.57
2022-10-11T14:41:18.751Z,9.75
2022-10-11T14:43:45.545Z,8.57
2022-10-11T14:46:24.488Z,8.80
2022-10-11T14:48:56.510Z,9.20
2022-10-11T14:51:32.071Z,9.18
2022-10-11T14:53:58.957Z,10.57
2022-10-11T14:56:26.045Z,9.68
2022-10-11T14:58:53.004Z,9.55
2022-10-11T15:01:19.839Z,8.43
2022-10-11T15:03:46.834Z,9.23
2022-10-11T15:06:36.808Z,9.20
2022-10-11T15:09:05.028Z,10.38
2022-10-11T15:11:32.351Z,8.70
2022-10-11T15:13:59.174Z,9.45
2022-10-11T15:16:26.975Z,8.93
2022-10-11T15:18:53.760Z,9.50
2022-10-11T15:21:26.863Z,9.93
2022-10-11T15:23:55.186Z,9.02
2022-10-11T15:26:24.874Z,10.65
2022-10-11T15:28:53.676Z,9.98
2022-10-11T15:31:21.093Z,10.38
2022-10-11T15:33:48.618Z,8.70
2022-10-11T15:36:20.651Z,9.90
2022-10-11T15:38:48.952Z,9.23
2022-10-11T15:41:18.942Z,10.57
2022-10-11T15:43:48.446Z,8.93
2022-10-11T15:46:19.141Z,9.63
2022-10-11T15:48:46.749Z,9.32
2022-10-11T15:51:13.798Z,9.13
2022-10-11T15:53:40.827Z,9.43
2022-10-11T15:56:12.769Z,10.05
2022-10-11T15:58:41.008Z,9.13
2022-10-11T16:01:16.533Z,9.70
2022-10-11T16:03:43.716Z,9.77
2022-10-11T16:06:11.838Z,11.52
2022-10-11T16:08:39.202Z,9.93
2022-10-11T16:11:08.370Z,9.80
2022-10-11T16:13:35.619Z,10.57
2022-10-11T16:16:12.108Z,10.35
2022-10-11T16:18:39.397Z,10.93
2022-10-11T16:21:10.421Z,10.43
2022-10-11T16:23:38.516Z,10.13
2022-10-11T16:26:09.763Z,10.30
2022-10-11T16:28:37.806Z,11.07
2022-10-11T16:31:14.907Z,12.15
2022-10-11T16:33:48.010Z,11.25
2022-10-11T16:36:40.722Z,9.85
2022-10-11T16:39:18.452Z,11.60
2022-10-11T16:41:46.925Z,12.02
2022-10-11T16:44:15.643Z,11.13
2022-10-11T16:46:43.169Z,12.57
2022-10-11T16:49:10.226Z,12.73
2022-10-11T16:51:36.965Z,12.45
2022-10-11T16:54:04.002Z,13.35
2022-10-11T16:56:32.521Z,12.25
2022-10-11T16:59:01.088Z,11.70
2022-10-11T17:01:28.055Z,12.00
2022-10-11T17:03:55.833Z,11.77
2022-10-11T17:06:23.809Z,12.90
2022-10-11T17:08:50.888Z,13.77
2022-10-11T17:11:18.105Z,12.50
2022-10-11T17:13:45.806Z,12.52
2022-10-11T17:16:12.777Z,12.45
2022-10-11T17:18:39.760Z,12.57
2022-10-11T17:21:09.366Z,13.15
2022-10-11T17:23:36.440Z,12.57
2022-10-11T17:26:10.066Z,12.05
2022-10-11T17:28:38.901Z,13.60
2022-10-11T17:31:07.653Z,13.02
2022-10-11T17:33:35.017Z,14.35
2022-10-11T17:36:02.224Z,13.63
2022-10-11T17:38:29.149Z,15.88
2022-10-11T17:41:05.101Z,13.43
2022-10-11T17:43:32.156Z,13.43
2022-10-11T17:46:01.443Z,13.90
2022-10-11T17:48:29.106Z,14.35
2022-10-11T17:50:56.218Z,13.43
2022-10-11T17:53:23.231Z,14.80
2022-10-11T17:55:50.467Z,15.25
2022-10-11T17:58:18.335Z,14.13
2022-10-11T18:00:45.353Z,20.40
2022-10-11T18:03:12.124Z,17.05
2022-10-11T18:05:42.342Z,29.20
2022-10-11T18:08:09.787Z,20.88
2022-10-11T18:10:38.027Z,24.83
2022-10-11T18:13:06.818Z,22.05
2022-10-11T18:15:34.024Z,23.08
2022-10-11T18:18:00.876Z,23.80
2022-10-11T18:20:27.613Z,22.50
2022-10-11T18:22:54.663Z,20.45
2022-10-11T18:25:21.497Z,19.25
2022-10-11T18:27:48.313Z,19.35
2022-10-11T18:30:15.745Z,20.63
2022-10-11T18:32:43.948Z,21.27
2022-10-11T18:35:11.295Z,18.90
2022-10-11T18:37:38.100Z,18.75
2022-10-11T18:40:05.606Z,16.85
2022-10-11T18:42:32.408Z,17.20
2022-10-11T18:44:59.396Z,18.05
2022-10-11T18:47:26.588Z,16.58
2022-10-11T18:49:54.466Z,17.33
2022-10-11T18:52:24.494Z,17.88
2022-10-11T18:54:51.982Z,16.38
2022-10-11T18:57:18.984Z,15.68
2022-10-11T18:59:47.105Z,14.55
2022-10-11T19:02:13.849Z,14.85
2022-10-11T19:04:40.627Z,13.95
2022-10-11T19:07:10.451Z,15.05
2022-10-11T19:09:38.075Z,14.50
2022-10-11T19:12:06.639Z,14.60
2022-10-11T19:14:33.510Z,16.05
2022-10-11T19:17:00.254Z,14.77
2022-10-11T19:19:29.124Z,14.95
2022-10-11T19:21:55.883Z,16.13
2022-10-11T19:24:24.479Z,15.57
2022-10-11T19:26:53.129Z,17.20
2022-10-11T19:29:22.802Z,15.60
2022-10-11T19:31:52.555Z,15.30
2022-10-11T19:34:20.240Z,16.63
2022-10-11T19:36:50.079Z,15.50
2022-10-11T19:39:18.327Z,16.65
2022-10-11T19:41:45.568Z,18.13
2022-10-11T19:44:16.491Z,16.90
2022-10-11T19:46:51.579Z,17.83
2022-10-11T19:49:22.622Z,17.25
2022-10-11T19:51:50.153Z,16.27
2022-10-11T19:54:17.547Z,17.50
2022-10-11T19:56:44.779Z,18.42
2022-10-11T19:59:12.594Z,19.20
2022-10-11T20:01:40.175Z,19.10
2022-10-11T20:04:12.915Z,19.55
2022-10-11T20:06:49.679Z,21.85
2022-10-11T20:09:29.184Z,21.58
2022-10-11T20:11:56.750Z,21.45
2022-10-11T20:14:23.850Z,22.08
2022-10-11T20:16:51.140Z,20.77
2022-10-11T20:19:19.393Z,20.88
2022-10-11T20:21:46.185Z,20.50
2022-10-11T20:24:13.282Z,19.23
2022-10-11T20:26:40.083Z,18.17
2022-10-11T20:29:07.211Z,19.05
2022-10-11T20:31:38.159Z,20.40
2022-10-11T20:34:07.477Z,19.55
2022-10-11T20:36:36.137Z,18.02
2022-10-11T20:39:04.387Z,17.08
2022-10-11T20:41:34.182Z,17.10
2022-10-11T20:44:03.217Z,16.30
2022-10-11T20:46:32.637Z,16.35
2022-10-11T20:49:02.343Z,17.25
2022-10-11T20:51:33.893Z,16.05
2022-10-11T20:54:02.108Z,15.02
2022-10-11T20:56:29.858Z,15.38
2022-10-11T20:58:58.101Z,14.10
2022-10-11T21:01:31.759Z,14.45
2022-10-11T21:04:01.385Z,14.63
2022-10-11T21:06:29.838Z,15.10
2022-10-11T21:08:59.013Z,15.27
2022-10-11T21:11:29.947Z,15.45
2022-10-11T21:14:01.734Z,15.93
2022-10-11T21:16:29.054Z,15.05
2022-10-11T21:18:57.563Z,14.75
2022-10-11T21:21:25.045Z,15.90
2022-10-11T21:24:00.223Z,16.55
2022-10-11T21:26:28.507Z,14.05
2022-10-11T21:28:55.428Z,15.85
2022-10-11T21:31:23.512Z,15.00
2022-10-11T21:33:50.686Z,15.27
2022-10-11T21:36:22.097Z,15.98
2022-10-11T21:38:50.330Z,15.10
2022-10-11T21:41:20.303Z,16.73
2022-10-11T21:43:47.353Z,14.90
2022-10-11T21:46:41.772Z,14.75
2022-10-11T21:49:12.305Z,15.77
2022-10-11T21:51:39.067Z,15.05
2022-10-11T21:54:06.200Z,14.80
2022-10-11T21:56:32.984Z,14.55
2022-10-11T21:58:59.772Z,17.52
2022-10-11T22:01:27.759Z,14.70
2022-10-11T22:03:57.970Z,17.48
2022-10-11T22:06:27.699Z,13.88
2022-10-11T22:08:54.637Z,15.07
2022-10-11T22:11:21.373Z,14.82
2022-10-11T22:13:49.440Z,15.10
2022-10-11T22:16:16.238Z,13.15
2022-10-11T22:18:43.262Z,14.13
2022-10-11T22:21:15.920Z,14.02
2022-10-11T22:23:45.723Z,14.68
2022-10-11T22:26:16.293Z,14.45
2022-10-11T22:28:43.135Z,14.70
2022-10-11T22:31:10.400Z,14.52
2022-10-11T22:33:38.051Z,13.45
2022-10-11T22:36:10.172Z,14.25
2022-10-11T22:38:38.456Z,14.88
2022-10-11T22:41:06.755Z,14.60
2022-10-11T22:43:33.620Z,15.32
2022-10-11T22:46:00.743Z,14.40
2022-10-11T22:48:27.838Z,13.90
2022-10-11T22:50:54.683Z,14.40
2022-10-11T22:53:21.723Z,13.88
2022-10-11T22:55:48.808Z,14.60
2022-10-11T22:58:15.660Z,14.07
2022-10-11T23:00:42.734Z,16.45
2022-10-11T23:03:17.232Z,14.68
2022-10-11T23:05:44.007Z,13.07
2022-10-11T23:08:11.847Z,13.88
2022-10-11T23:10:41.764Z,14.40
2022-10-11T23:13:08.577Z,14.73
2022-10-11T23:15:40.234Z,16.63
2022-10-11T23:18:06.980Z,15.07
2022-10-11T23:20:33.738Z,17.65
2022-10-11T23:23:00.684Z,18.90
2022-10-11T23:25:27.465Z,16.92
2022-10-11T23:27:54.266Z,17.40
2022-10-11T23:30:21.194Z,18.45
2022-10-11T23:32:47.935Z,19.10
2022-10-11T23:35:14.716Z,20.17
2022-10-11T23:37:41.689Z,19.63
2022-10-11T23:40:08.896Z,19.95
2022-10-11T23:42:35.938Z,18.77
2022-10-11T23:45:02.963Z,20.23
2022-10-11T23:47:29.795Z,18.98
2022-10-11T23:49:56.562Z,18.55
2022-10-11T23:52:23.522Z,18.92
2022-10-11T23:54:50.482Z,17.23
2022-10-11T23:57:17.273Z,16.85
2022-10-11T23:59:44.207Z,17.15
